Time;durP1;ratioP1;P1;durP2;ratioP2;P2;SDS_P1;SDS_P2;PMS_P1;PMS_P2;Temp;Humidity;BMP_temperature;BMP_pressure;BME280_temperature;BME280_humidity;BME280_pressure;Samples;Min_cycle;Max_cycle;Signal;HPM_P1;HPM_P2
2023/01/26 00:00:46;;;;;;;88.07;47.83;;;0.10;99.90;;;;;;5089604;28;20044;-71
2023/01/26 00:03:12;;;;;;;94.45;47.78;;;0.10;99.90;;;;;;5104105;28;20051;-71
2023/01/26 00:05:39;;;;;;;89.43;44.05;;;0.10;99.90;;;;;;5088471;28;20052;-70
2023/01/26 00:08:07;;;;;;;86.43;45.58;;;0.20;99.90;;;;;;5101243;28;20079;-71
2023/01/26 00:10:39;;;;;;;80.40;43.40;;;0.20;99.90;;;;;;5083696;28;20609;-71
2023/01/26 00:13:06;;;;;;;86.45;46.17;;;0.20;99.90;;;;;;5104984;28;20084;-71
2023/01/26 00:15:33;;;;;;;91.22;45.67;;;0.20;99.90;;;;;;5099507;28;20136;-71
2023/01/26 00:17:59;;;;;;;86.95;43.35;;;0.20;99.90;;;;;;5090366;28;20145;-70
2023/01/26 00:20:26;;;;;;;79.45;41.53;;;0.20;99.90;;;;;;5095331;28;20178;-70
2023/01/26 00:22:52;;;;;;;88.03;42.83;;;0.20;99.90;;;;;;5100999;28;20093;-70
2023/01/26 00:25:18;;;;;;;82.65;41.90;;;0.20;99.90;;;;;;5104387;28;20047;-71
2023/01/26 00:27:44;;;;;;;85.68;43.15;;;0.20;99.90;;;;;;5100732;28;20048;-71
2023/01/26 00:30:10;;;;;;;82.47;40.35;;;0.20;99.90;;;;;;5087604;28;20063;-71
2023/01/26 00:32:36;;;;;;;84.63;44.55;;;0.20;99.90;;;;;;5096318;28;20048;-71
2023/01/26 00:35:03;;;;;;;80.53;41.30;;;0.20;99.90;;;;;;5091429;28;20181;-71
2023/01/26 00:37:29;;;;;;;83.30;42.47;;;0.20;99.90;;;;;;5101214;28;20047;-71
2023/01/26 00:39:55;;;;;;;90.43;44.67;;;0.10;99.90;;;;;;5092621;28;20055;-70
2023/01/26 00:42:23;;;;;;;86.38;43.08;;;0.20;99.90;;;;;;5101821;28;20040;-71
2023/01/26 00:44:49;;;;;;;88.88;42.05;;;0.10;99.90;;;;;;5087581;28;20048;-71
2023/01/26 00:47:17;;;;;;;90.38;41.20;;;0.10;99.90;;;;;;5103822;28;20079;-71
2023/01/26 00:49:43;;;;;;;82.17;43.37;;;0.20;99.90;;;;;;5099557;28;20075;-71
2023/01/26 00:52:12;;;;;;;76.15;39.88;;;0.20;99.90;;;;;;5093954;28;20636;-70
2023/01/26 00:54:38;;;;;;;77.15;42.67;;;0.20;99.90;;;;;;5091858;28;20048;-70
2023/01/26 00:57:06;;;;;;;83.78;41.17;;;0.20;99.90;;;;;;5095943;28;20036;-71
2023/01/26 00:59:32;;;;;;;86.05;42.42;;;0.20;99.90;;;;;;5101267;28;20135;-71
2023/01/26 01:02:00;;;;;;;86.72;43.83;;;0.20;99.90;;;;;;5098466;28;20115;-71
2023/01/26 01:04:25;;;;;;;82.35;41.38;;;0.20;99.90;;;;;;5095190;28;20051;-71
2023/01/26 01:06:51;;;;;;;86.20;42.08;;;0.20;99.90;;;;;;5097646;28;20085;-71
2023/01/26 01:09:17;;;;;;;80.20;37.38;;;0.20;99.90;;;;;;5102898;28;20048;-71
2023/01/26 01:11:44;;;;;;;85.88;42.85;;;0.20;99.90;;;;;;5102446;28;20074;-71
2023/01/26 01:14:11;;;;;;;86.60;43.05;;;0.20;99.90;;;;;;5097300;28;20054;-71
2023/01/26 01:16:37;;;;;;;73.53;38.40;;;0.20;99.90;;;;;;5100519;28;20396;-71
2023/01/26 01:19:03;;;;;;;77.60;40.58;;;0.20;99.90;;;;;;5091658;28;20044;-71
2023/01/26 01:21:28;;;;;;;80.82;43.08;;;0.20;99.90;;;;;;5093163;28;20048;-71
2023/01/26 01:23:57;;;;;;;86.07;41.50;;;0.20;99.90;;;;;;5099423;28;22429;-71
2023/01/26 01:26:23;;;;;;;85.18;40.83;;;0.30;99.90;;;;;;5107994;28;20044;-70
2023/01/26 01:28:53;;;;;;;82.00;41.53;;;0.30;99.90;;;;;;5099003;28;20491;-70
2023/01/26 01:31:19;;;;;;;77.30;38.90;;;0.30;99.90;;;;;;5091825;28;20052;-70
2023/01/26 01:33:44;;;;;;;80.13;41.45;;;0.30;99.90;;;;;;5098377;28;20058;-70
2023/01/26 01:36:12;;;;;;;71.40;38.42;;;0.30;99.90;;;;;;5108880;28;20055;-70
2023/01/26 01:38:39;;;;;;;77.65;38.92;;;0.30;99.90;;;;;;5090527;28;20044;-70
2023/01/26 01:41:05;;;;;;;75.32;40.72;;;0.30;99.90;;;;;;5090520;28;20133;-70
2023/01/26 01:43:31;;;;;;;79.63;39.72;;;0.30;99.90;;;;;;5105630;28;20489;-70
2023/01/26 01:46:03;;;;;;;69.80;36.63;;;0.30;99.90;;;;;;5098795;28;20055;-69
2023/01/26 01:48:57;;;;;;;71.70;36.65;;;0.30;99.90;;;;;;5095850;28;20065;-69
2023/01/26 01:51:33;;;;;;;76.82;36.72;;;0.30;99.90;;;;;;5093526;28;20048;-69
2023/01/26 01:54:04;;;;;;;70.28;36.75;;;0.40;99.90;;;;;;5105827;28;20049;-69
2023/01/26 01:56:32;;;;;;;81.70;39.28;;;0.40;99.90;;;;;;5104862;28;20048;-69
2023/01/26 01:59:00;;;;;;;82.95;38.05;;;0.40;99.90;;;;;;5097527;28;20147;-69
2023/01/26 02:01:27;;;;;;;78.03;36.80;;;0.40;99.90;;;;;;5106958;28;20138;-69
2023/01/26 02:03:57;;;;;;;69.07;36.45;;;0.40;99.90;;;;;;5107143;28;20047;-69
2023/01/26 02:06:47;;;;;;;77.30;36.80;;;0.40;99.90;;;;;;5093842;28;20058;-69
2023/01/26 02:10:17;;;;;;;76.10;37.70;;;0.40;99.90;;;;;;5088193;28;20319;-69
2023/01/26 02:12:02;;;;;;;63.65;35.40;;;0.40;99.90;;;;;;5101389;28;20052;-69
2023/01/26 02:14:28;;;;;;;60.97;33.63;;;0.40;99.90;;;;;;5091741;28;20097;-70
2023/01/26 02:16:53;;;;;;;64.25;35.42;;;0.40;99.90;;;;;;5103334;28;20286;-70
2023/01/26 02:19:35;;;;;;;60.83;32.55;;;0.40;99.90;;;;;;5104259;28;20066;-70
2023/01/26 02:22:09;;;;;;;67.53;35.42;;;0.40;99.90;;;;;;5095004;28;20059;-70
2023/01/26 02:24:38;;;;;;;25.70;8.77;;;0.40;99.90;;;;;;5107262;28;20363;-70
2023/01/26 02:27:04;;;;;;;71.15;35.05;;;0.40;99.90;;;;;;5097106;28;20051;-70
2023/01/26 02:29:30;;;;;;;67.25;33.35;;;0.40;99.90;;;;;;5106606;28;20073;-70
2023/01/26 02:31:56;;;;;;;64.75;33.05;;;0.40;99.90;;;;;;5104674;28;20785;-70
2023/01/26 02:34:24;;;;;;;66.25;32.60;;;0.40;99.90;;;;;;5097640;28;20079;-70
2023/01/26 02:36:57;;;;;;;62.83;31.37;;;0.40;99.90;;;;;;5089531;28;20049;-69
2023/01/26 02:39:43;;;;;;;65.93;33.53;;;0.40;99.90;;;;;;5096215;28;20056;-70
2023/01/26 02:44:54;;;;;;;64.45;33.47;;;0.40;99.90;;;;;;5093893;28;20056;-70
2023/01/26 02:47:19;;;;;;;57.97;32.65;;;0.40;99.90;;;;;;5077359;28;20054;-70
2023/01/26 02:49:49;;;;;;;58.55;31.90;;;0.50;99.90;;;;;;5104122;28;20042;-70
2023/01/26 02:52:25;;;;;;;60.03;32.90;;;0.50;99.90;;;;;;5102162;28;20049;-70
2023/01/26 02:57:36;;;;;;;61.60;33.28;;;0.50;99.90;;;;;;5097632;28;20052;-70
2023/01/26 03:00:08;;;;;;;70.22;33.78;;;0.50;99.90;;;;;;5095388;28;20097;-70
2023/01/26 03:02:34;;;;;;;60.17;31.80;;;0.50;99.90;;;;;;5089781;28;20052;-70
2023/01/26 03:05:00;;;;;;;54.55;29.33;;;0.50;99.90;;;;;;5102452;28;20050;-70
2023/01/26 03:07:25;;;;;;;60.70;31.00;;;0.50;99.90;;;;;;5078562;28;20090;-70
2023/01/26 03:09:52;;;;;;;60.47;31.45;;;0.50;99.90;;;;;;5099855;28;20040;-70
2023/01/26 03:12:17;;;;;;;55.55;28.70;;;0.50;99.90;;;;;;5092137;28;20066;-70
2023/01/26 03:15:33;;;;;;;57.08;30.83;;;0.50;99.90;;;;;;5101146;28;20055;-70
2023/01/26 03:17:32;;;;;;;66.97;31.08;;;0.50;99.90;;;;;;5090411;28;20386;-70
2023/01/26 03:28:12;;;;;;;57.83;30.58;;;0.60;99.90;;;;;;5101199;28;20489;-70
2023/01/26 03:30:38;;;;;;;51.00;27.45;;;0.50;99.90;;;;;;5103198;28;20709;-70
2023/01/26 03:33:04;;;;;;;68.68;32.58;;;0.60;99.90;;;;;;5099354;28;20044;-70
2023/01/26 03:35:31;;;;;;;57.00;30.23;;;0.60;99.90;;;;;;5094661;28;20051;-70
2023/01/26 03:37:57;;;;;;;54.72;28.48;;;0.60;99.90;;;;;;5104117;28;20044;-70
2023/01/26 03:56:51;;;;;;;48.47;28.23;;;0.60;99.90;;;;;;5103180;28;20079;-69
2023/01/26 03:59:19;;;;;;;44.50;26.30;;;0.60;99.90;;;;;;5107616;28;20070;-69
2023/01/26 04:09:59;;;;;;;52.03;27.40;;;0.60;99.90;;;;;;5101266;28;20044;-70
2023/01/26 04:12:25;;;;;;;47.35;24.92;;;0.70;99.90;;;;;;5102045;28;20100;-70
2023/01/26 04:23:05;;;;;;;45.92;23.58;;;0.70;99.90;;;;;;5100070;28;20142;-70
2023/01/26 04:25:30;;;;;;;40.97;23.05;;;0.70;99.90;;;;;;5097551;28;20676;-70
2023/01/26 04:27:56;;;;;;;46.08;24.13;;;0.70;99.90;;;;;;5101123;28;20122;-70
2023/01/26 04:30:21;;;;;;;46.55;25.02;;;0.70;99.90;;;;;;5099856;28;20043;-71
2023/01/26 04:32:49;;;;;;;43.65;23.95;;;0.70;99.90;;;;;;5094817;28;20043;-70
2023/01/26 04:35:15;;;;;;;41.30;23.13;;;0.70;99.90;;;;;;5091969;28;20058;-71
2023/01/26 04:37:40;;;;;;;39.42;21.40;;;0.80;99.90;;;;;;5102006;28;20331;-71
2023/01/26 04:40:08;;;;;;;43.83;24.17;;;0.80;99.90;;;;;;5103877;28;20044;-71
2023/01/26 04:42:34;;;;;;;39.88;21.10;;;0.80;99.90;;;;;;5105354;28;20059;-71
2023/01/26 04:44:59;;;;;;;44.22;22.88;;;0.80;99.90;;;;;;5091596;28;20036;-71
2023/01/26 04:47:25;;;;;;;43.28;21.48;;;0.80;99.90;;;;;;5097630;28;20099;-71
2023/01/26 04:49:51;;;;;;;37.75;20.30;;;0.80;99.90;;;;;;5095675;28;20077;-70
2023/01/26 04:52:16;;;;;;;44.03;21.58;;;0.80;99.90;;;;;;5102361;28;20043;-70
2023/01/26 04:54:42;;;;;;;37.13;20.95;;;0.80;99.90;;;;;;5103448;28;20051;-70
2023/01/26 04:57:08;;;;;;;43.75;21.65;;;0.80;99.90;;;;;;5098924;28;20073;-70
2023/01/26 04:59:33;;;;;;;32.78;20.33;;;0.80;99.90;;;;;;5105943;28;20474;-70
2023/01/26 05:01:59;;;;;;;35.83;20.60;;;0.80;99.90;;;;;;5096615;28;20131;-71
2023/01/26 05:04:25;;;;;;;7.95;3.85;;;0.80;99.90;;;;;;5102607;28;20040;-71
2023/01/26 05:06:51;;;;;;;41.53;20.88;;;0.80;99.90;;;;;;5109017;28;20135;-71
2023/01/26 05:09:16;;;;;;;32.88;20.20;;;0.80;99.90;;;;;;5101281;28;20500;-70
2023/01/26 05:11:42;;;;;;;38.53;20.48;;;0.80;99.90;;;;;;5101189;28;20047;-71
2023/01/26 05:14:08;;;;;;;37.60;19.30;;;0.90;99.90;;;;;;5091977;28;20131;-71
2023/01/26 05:16:33;;;;;;;49.13;23.27;;;0.90;99.90;;;;;;5098687;28;20495;-71
2023/01/26 05:18:59;;;;;;;37.28;20.08;;;0.90;99.90;;;;;;5108205;28;20577;-71
2023/01/26 05:21:26;;;;;;;37.08;19.52;;;0.90;99.90;;;;;;5110510;28;20517;-71
2023/01/26 05:23:53;;;;;;;30.65;18.13;;;0.90;99.90;;;;;;5100932;28;20082;-71
2023/01/26 05:26:18;;;;;;;33.10;18.70;;;0.90;99.90;;;;;;5104045;28;20040;-71
2023/01/26 05:28:44;;;;;;;35.35;20.05;;;0.90;99.90;;;;;;5093992;28;20052;-71
2023/01/26 05:31:10;;;;;;;31.38;19.05;;;0.90;99.90;;;;;;5096870;28;20056;-70
2023/01/26 05:33:35;;;;;;;37.85;20.33;;;0.90;99.90;;;;;;5097489;28;20428;-71
2023/01/26 05:36:06;;;;;;;33.38;18.75;;;0.90;99.90;;;;;;5104235;28;20044;-71
2023/01/26 05:38:32;;;;;;;29.85;17.02;;;0.90;99.90;;;;;;5104061;28;20100;-71
2023/01/26 05:40:58;;;;;;;31.35;17.80;;;0.90;99.90;;;;;;5092028;28;20068;-71
2023/01/26 05:43:24;;;;;;;31.05;17.95;;;0.90;99.90;;;;;;5098249;27;20169;-71
2023/01/26 05:45:50;;;;;;;29.70;17.48;;;0.90;99.90;;;;;;5100560;28;20126;-71
2023/01/26 05:48:16;;;;;;;37.85;19.85;;;0.90;99.90;;;;;;5086769;28;20163;-71
2023/01/26 05:50:42;;;;;;;38.25;19.58;;;0.90;99.90;;;;;;5106453;28;20046;-71
2023/01/26 05:53:08;;;;;;;31.60;16.98;;;0.90;99.90;;;;;;5094344;28;20434;-71
2023/01/26 05:55:33;;;;;;;33.92;18.05;;;0.90;99.90;;;;;;5102804;28;20100;-71
2023/01/26 05:57:59;;;;;;;30.95;18.08;;;0.90;99.90;;;;;;5100613;28;20105;-71
2023/01/26 06:00:25;;;;;;;30.08;17.45;;;1.00;99.90;;;;;;5101806;28;20044;-71
2023/01/26 06:02:51;;;;;;;32.28;18.50;;;1.00;99.90;;;;;;5100020;28;20113;-71
2023/01/26 06:05:16;;;;;;;36.35;17.45;;;1.00;99.90;;;;;;5095532;28;20048;-72
2023/01/26 06:07:42;;;;;;;33.38;18.10;;;1.00;99.90;;;;;;5102651;28;20071;-72
2023/01/26 06:10:08;;;;;;;30.05;17.98;;;1.00;99.90;;;;;;5104008;28;20405;-72
2023/01/26 06:12:34;;;;;;;36.45;20.30;;;1.00;99.90;;;;;;5105765;28;20036;-72
2023/01/26 06:15:01;;;;;;;35.53;18.67;;;1.00;99.90;;;;;;5096466;28;20051;-72
2023/01/26 06:17:27;;;;;;;35.00;18.92;;;1.00;99.90;;;;;;5100522;28;20051;-72
2023/01/26 06:19:52;;;;;;;8.45;3.95;;;1.00;99.90;;;;;;5104527;28;20155;-72
2023/01/26 06:22:18;;;;;;;37.95;19.73;;;1.00;99.90;;;;;;5108349;28;20039;-72
2023/01/26 06:24:44;;;;;;;37.83;20.42;;;1.00;99.90;;;;;;5101861;28;20651;-72
2023/01/26 06:27:14;;;;;;;34.33;19.10;;;1.00;99.90;;;;;;5102082;27;20135;-71
2023/01/26 06:29:40;;;;;;;43.00;21.38;;;1.00;99.90;;;;;;5096095;28;20446;-72
2023/01/26 06:32:06;;;;;;;43.97;20.48;;;1.00;99.90;;;;;;5105154;28;20048;-72
2023/01/26 06:34:32;;;;;;;44.83;21.63;;;1.00;99.90;;;;;;5101027;28;20413;-71
2023/01/26 06:36:58;;;;;;;51.40;23.98;;;1.00;99.90;;;;;;5092401;28;20052;-71
2023/01/26 06:39:24;;;;;;;55.15;23.17;;;1.00;99.90;;;;;;5095130;28;20048;-72
2023/01/26 06:41:49;;;;;;;42.90;22.30;;;1.00;99.90;;;;;;5097345;28;20510;-71
2023/01/26 06:44:15;;;;;;;56.53;23.50;;;1.00;99.90;;;;;;5099669;28;20067;-71
2023/01/26 06:46:41;;;;;;;54.40;24.77;;;1.00;99.90;;;;;;5104464;28;20043;-71
2023/01/26 06:49:07;;;;;;;51.90;23.65;;;1.00;99.90;;;;;;5096521;28;20413;-72
2023/01/26 06:51:40;;;;;;;47.72;24.30;;;1.00;99.90;;;;;;5098914;28;20044;-72
2023/01/26 06:54:09;;;;;;;61.50;25.73;;;1.00;99.90;;;;;;5101204;28;20142;-72
2023/01/26 06:56:37;;;;;;;59.28;26.02;;;1.00;99.90;;;;;;5104816;28;20043;-72
2023/01/26 06:59:03;;;;;;;54.63;24.70;;;1.00;99.90;;;;;;5099679;28;20036;-69
2023/01/26 07:01:36;;;;;;;69.28;25.45;;;1.00;99.90;;;;;;5101785;28;20040;-69
2023/01/26 07:04:01;;;;;;;54.05;24.83;;;1.00;99.90;;;;;;5097371;28;20058;-69
2023/01/26 07:06:27;;;;;;;57.38;25.52;;;1.00;99.90;;;;;;5101937;28;20416;-69
2023/01/26 07:08:53;;;;;;;71.40;26.83;;;1.00;99.90;;;;;;5100050;28;20606;-69
2023/01/26 07:11:19;;;;;;;74.90;29.80;;;1.00;99.90;;;;;;5107540;28;20598;-69
2023/01/26 07:13:46;;;;;;;61.90;26.58;;;1.00;99.90;;;;;;5097417;28;20390;-69
2023/01/26 07:16:14;;;;;;;61.60;23.73;;;1.10;99.90;;;;;;5097773;28;20043;-69
2023/01/26 07:18:40;;;;;;;60.60;27.27;;;1.00;99.90;;;;;;5093990;28;20077;-69
2023/01/26 07:21:10;;;;;;;62.88;27.75;;;1.10;99.90;;;;;;5099588;28;20059;-70
2023/01/26 07:23:36;;;;;;;57.65;26.95;;;1.00;99.90;;;;;;5105101;28;20044;-69
2023/01/26 07:26:03;;;;;;;63.10;27.77;;;1.00;99.90;;;;;;5099133;28;20070;-69
2023/01/26 07:28:29;;;;;;;50.28;26.33;;;1.10;99.90;;;;;;5097422;28;20152;-69
2023/01/26 07:30:59;;;;;;;65.80;28.00;;;1.10;99.90;;;;;;5103306;28;20053;-69
2023/01/26 07:33:27;;;;;;;57.40;25.90;;;1.00;99.90;;;;;;5092812;28;20048;-69
2023/01/26 07:35:56;;;;;;;68.83;29.07;;;1.10;99.90;;;;;;5099331;28;20083;-69
2023/01/26 07:38:22;;;;;;;74.68;28.45;;;1.10;99.90;;;;;;5105095;28;20851;-69
2023/01/26 07:40:48;;;;;;;60.30;26.38;;;1.10;99.90;;;;;;5104919;28;20468;-70
2023/01/26 07:43:15;;;;;;;70.70;27.65;;;1.10;99.90;;;;;;5097410;28;20562;-70
2023/01/26 07:45:51;;;;;;;54.17;25.92;;;1.10;99.90;;;;;;5102214;28;20126;-71
2023/01/26 07:48:18;;;;;;;68.13;26.77;;;1.10;99.90;;;;;;5084363;28;21225;-70
2023/01/26 07:50:46;;;;;;;78.50;28.17;;;1.10;99.90;;;;;;5082778;28;20134;-70
2023/01/26 07:53:14;;;;;;;68.70;27.05;;;1.20;99.90;;;;;;5087637;28;20040;-70
2023/01/26 07:55:42;;;;;;;7.90;3.35;;;1.20;99.90;;;;;;5095446;28;20048;-70
2023/01/26 07:58:11;;;;;;;13.95;8.10;;;1.20;99.90;;;;;;5094419;28;20044;-70
2023/01/26 08:00:37;;;;;;;63.63;24.27;;;1.20;99.90;;;;;;5089464;28;20055;-71
2023/01/26 08:03:03;;;;;;;61.45;26.58;;;1.20;99.90;;;;;;5103945;28;20048;-70
2023/01/26 08:05:30;;;;;;;85.35;29.55;;;1.30;99.90;;;;;;5103711;28;20075;-69
2023/01/26 08:07:59;;;;;;;75.55;28.17;;;1.30;99.90;;;;;;5103861;28;20433;-69
2023/01/26 08:10:26;;;;;;;90.38;29.33;;;1.40;99.90;;;;;;5105643;28;20605;-69
2023/01/26 08:12:51;;;;;;;75.20;27.40;;;1.50;99.90;;;;;;5102609;28;20561;-69
2023/01/26 08:15:17;;;;;;;97.93;31.17;;;1.50;99.90;;;;;;5089736;28;20122;-69
2023/01/26 08:17:43;;;;;;;61.00;25.63;;;1.50;99.90;;;;;;5093769;28;20047;-69
2023/01/26 08:20:09;;;;;;;83.63;27.60;;;1.60;99.90;;;;;;5097299;28;20067;-69
2023/01/26 08:22:35;;;;;;;66.90;25.92;;;1.60;99.90;;;;;;5102135;28;20035;-70
2023/01/26 08:25:00;;;;;;;86.82;27.63;;;1.60;99.90;;;;;;5103948;28;20043;-69
2023/01/26 08:27:26;;;;;;;83.57;26.00;;;1.60;99.90;;;;;;5093250;28;20675;-69
2023/01/26 08:29:52;;;;;;;69.45;24.05;;;1.70;99.90;;;;;;5094967;28;20043;-69
2023/01/26 08:32:17;;;;;;;67.50;22.77;;;1.70;99.90;;;;;;5093509;28;20040;-69
2023/01/26 08:34:43;;;;;;;66.45;23.73;;;1.70;99.90;;;;;;5084170;28;20056;-68
2023/01/26 08:37:09;;;;;;;77.93;25.13;;;1.80;99.90;;;;;;5087129;28;20497;-69
2023/01/26 08:39:34;;;;;;;64.60;22.40;;;1.80;99.90;;;;;;5090009;28;20409;-69
2023/01/26 08:42:00;;;;;;;66.90;23.85;;;1.80;99.90;;;;;;5096737;28;20252;-69
2023/01/26 08:44:26;;;;;;;64.57;22.02;;;1.80;99.90;;;;;;5103026;28;20378;-69
2023/01/26 08:46:53;;;;;;;71.68;22.25;;;1.80;99.90;;;;;;5104075;28;20173;-69
2023/01/26 08:49:19;;;;;;;63.37;21.53;;;1.80;99.90;;;;;;5104776;28;20928;-68
2023/01/26 08:51:45;;;;;;;53.10;21.40;;;1.90;99.90;;;;;;5099799;28;20328;-68
2023/01/26 08:54:10;;;;;;;70.93;23.75;;;1.90;99.90;;;;;;5099791;28;20048;-68
2023/01/26 08:56:37;;;;;;;64.97;19.80;;;1.80;99.90;;;;;;5103169;28;20043;-69
2023/01/26 08:59:04;;;;;;;68.82;20.90;;;1.90;99.90;;;;;;5100017;28;20174;-68
2023/01/26 09:01:29;;;;;;;66.68;20.98;;;1.90;99.90;;;;;;5102826;28;20081;-68
2023/01/26 09:03:55;;;;;;;62.20;19.13;;;1.90;99.90;;;;;;5099102;28;20051;-68
2023/01/26 09:06:21;;;;;;;72.93;22.33;;;1.90;99.90;;;;;;5097732;28;20048;-68
2023/01/26 09:08:47;;;;;;;74.68;19.65;;;2.00;99.90;;;;;;5077955;28;20036;-69
2023/01/26 09:11:12;;;;;;;59.03;19.20;;;2.00;99.90;;;;;;5091732;28;20051;-70
2023/01/26 09:13:39;;;;;;;70.95;20.15;;;2.10;99.90;;;;;;5099623;28;20746;-71
2023/01/26 09:16:11;;;;;;;69.05;20.08;;;2.20;99.90;;;;;;5097379;28;20485;-71
2023/01/26 09:18:36;;;;;;;60.40;21.30;;;2.20;99.90;;;;;;5102022;28;20051;-69
2023/01/26 09:21:07;;;;;;;72.30;21.67;;;2.30;99.90;;;;;;5087195;28;20105;-70
2023/01/26 09:23:33;;;;;;;51.40;19.15;;;2.40;99.90;;;;;;5090397;28;20044;-70
2023/01/26 09:25:59;;;;;;;63.33;17.95;;;2.50;99.90;;;;;;5092362;28;20043;-70
2023/01/26 09:28:24;;;;;;;50.97;15.90;;;2.60;99.90;;;;;;5088478;28;20050;-69
2023/01/26 09:30:50;;;;;;;70.68;16.38;;;2.60;99.90;;;;;;5094248;28;20040;-69
2023/01/26 09:33:16;;;;;;;61.60;15.98;;;2.70;99.90;;;;;;5091406;28;20508;-70
2023/01/26 09:35:42;;;;;;;60.38;16.15;;;2.70;99.90;;;;;;5089585;28;20055;-70
2023/01/26 09:38:07;;;;;;;66.68;18.45;;;2.80;99.90;;;;;;5097161;28;20116;-69
2023/01/26 09:40:56;;;;;;;57.63;20.42;;;2.90;99.90;;;;;;5094903;28;20564;-69
2023/01/26 09:43:36;;;;;;;59.17;18.23;;;3.10;99.90;;;;;;5100958;28;20621;-68
2023/01/26 09:46:18;;;;;;;71.05;16.67;;;3.20;99.90;;;;;;5106604;28;20051;-70
2023/01/26 09:48:49;;;;;;;56.92;14.93;;;3.30;99.90;;;;;;5108583;28;20165;-70
2023/01/26 09:51:22;;;;;;;55.10;10.88;;;3.50;99.90;;;;;;5108732;28;20050;-71
2023/01/26 09:54:15;;;;;;;47.53;11.43;;;3.60;99.90;;;;;;5097434;28;20043;-69
2023/01/26 09:56:42;;;;;;;46.67;12.15;;;3.70;99.90;;;;;;5091218;28;20043;-69
2023/01/26 09:59:31;;;;;;;54.97;11.48;;;3.80;99.90;;;;;;5104192;27;20062;-69
2023/01/26 10:02:12;;;;;;;15.88;3.60;;;4.00;99.90;;;;;;5100000;28;20039;-69
2023/01/26 10:04:42;;;;;;;62.13;12.88;;;4.10;99.90;;;;;;5103955;28;20127;-69
2023/01/26 10:07:13;;;;;;;47.35;13.82;;;4.20;99.90;;;;;;5103437;28;20492;-69
2023/01/26 10:09:43;;;;;;;54.45;12.30;;;4.30;99.90;;;;;;5105093;28;20496;-69
2023/01/26 10:12:30;;;;;;;46.35;12.38;;;4.40;99.90;;;;;;5102174;28;20047;-68
2023/01/26 10:15:15;;;;;;;47.50;13.18;;;4.50;99.90;;;;;;5103871;28;20039;-69
2023/01/26 10:17:44;;;;;;;38.05;10.63;;;4.70;99.90;;;;;;5094302;28;20048;-69
2023/01/26 10:20:36;;;;;;;39.17;11.30;;;4.70;99.90;;;;;;5104674;28;20075;-69
2023/01/26 10:23:12;;;;;;;47.67;10.70;;;4.90;99.90;;;;;;5104292;28;20040;-68
2023/01/26 10:25:40;;;;;;;59.97;12.00;;;5.00;99.90;;;;;;5094353;28;20048;-68
2023/01/26 10:28:14;;;;;;;37.03;9.63;;;5.00;99.90;;;;;;5089923;28;20052;-69
2023/01/26 10:30:41;;;;;;;48.22;11.23;;;5.20;99.90;;;;;;5103126;28;20254;-69
2023/01/26 10:33:23;;;;;;;39.22;9.73;;;5.30;99.90;;;;;;5108041;28;20112;-69
2023/01/26 10:35:49;;;;;;;38.08;10.95;;;5.40;99.90;;;;;;5101241;28;20069;-70
2023/01/26 10:38:32;;;;;;;45.92;10.82;;;5.50;99.90;;;;;;5105402;27;20106;-69
2023/01/26 10:41:17;;;;;;;55.78;10.20;;;5.60;99.90;;;;;;5101562;28;20493;-69
2023/01/26 10:44:08;;;;;;;45.72;10.93;;;5.70;99.90;;;;;;5104299;28;20053;-69
2023/01/26 10:46:36;;;;;;;44.80;11.00;;;5.80;99.90;;;;;;5100016;28;20476;-69
2023/01/26 10:49:14;;;;;;;40.83;9.68;;;5.90;99.90;;;;;;5089625;28;20031;-69
2023/01/26 10:51:44;;;;;;;44.00;11.43;;;6.10;99.90;;;;;;5089464;28;20155;-69
2023/01/26 10:54:20;;;;;;;45.95;9.73;;;6.30;99.90;;;;;;5091189;28;20588;-69
2023/01/26 10:57:03;;;;;;;43.97;9.98;;;6.50;99.90;;;;;;5094040;28;20145;-69
2023/01/26 10:59:34;;;;;;;30.83;8.05;;;6.70;99.90;;;;;;5099552;28;20660;-69
2023/01/26 11:02:01;;;;;;;28.10;8.23;;;6.80;99.90;;;;;;5100223;28;20051;-69
2023/01/26 11:04:28;;;;;;;48.88;10.32;;;6.80;99.90;;;;;;5097081;28;20047;-69
2023/01/26 11:06:55;;;;;;;27.92;7.18;;;6.90;99.90;;;;;;5098890;28;20048;-69
2023/01/26 11:09:30;;;;;;;57.30;9.30;;;7.00;99.90;;;;;;5092421;28;20515;-69
2023/01/26 11:11:56;;;;;;;36.42;7.97;;;7.10;99.90;;;;;;5088706;28;20754;-69
2023/01/26 11:14:22;;;;;;;31.55;8.13;;;7.20;99.90;;;;;;5088721;28;20055;-69
2023/01/26 11:17:20;;;;;;;34.38;7.88;;;7.30;99.90;;;;;;5098742;28;20043;-69
2023/01/26 11:20:06;;;;;;;25.98;6.85;;;7.30;99.90;;;;;;5087754;28;20048;-69
2023/01/26 11:23:07;;;;;;;35.83;8.25;;;7.50;99.90;;;;;;5104495;28;20051;-69
2023/01/26 11:26:13;;;;;;;50.30;9.82;;;7.50;99.90;;;;;;5041466;28;20053;-70
2023/01/26 11:28:57;;;;;;;36.38;7.85;;;7.60;99.90;;;;;;5078048;28;20602;-69
2023/01/26 11:31:52;;;;;;;29.48;7.40;;;7.70;99.90;;;;;;5097941;28;20505;-69
2023/01/26 11:34:28;;;;;;;40.15;7.65;;;7.80;99.90;;;;;;5088543;28;20056;-70
2023/01/26 11:37:18;;;;;;;25.80;6.10;;;7.80;99.90;;;;;;5098751;28;20047;-70
2023/01/26 11:39:53;;;;;;;32.05;6.15;;;7.90;99.90;;;;;;5088802;28;20189;-69
2023/01/26 11:42:32;;;;;;;27.23;7.47;;;8.00;99.90;;;;;;5100521;28;20040;-70
2023/01/26 11:45:16;;;;;;;36.03;8.27;;;8.00;99.90;;;;;;5089454;28;20040;-69
2023/01/26 11:48:11;;;;;;;35.15;7.03;;;8.10;99.90;;;;;;5103656;28;20066;-70
2023/01/26 11:50:55;;;;;;;26.73;7.53;;;8.10;99.90;;;;;;5089731;28;20048;-70
2023/01/26 11:53:35;;;;;;;30.05;7.53;;;8.20;99.90;;;;;;5093632;28;20484;-70
2023/01/26 11:56:08;;;;;;;45.10;11.35;;;8.20;99.90;;;;;;5098789;28;20044;-70
2023/01/26 11:58:47;;;;;;;29.85;8.07;;;8.10;99.90;;;;;;5088326;28;20547;-70
2023/01/26 12:01:27;;;;;;;22.27;5.80;;;8.20;99.90;;;;;;5094930;28;20169;-70
2023/01/26 12:03:55;;;;;;;30.02;5.97;;;8.20;99.90;;;;;;5087181;28;20720;-70
2023/01/26 12:06:38;;;;;;;32.63;6.77;;;8.20;99.90;;;;;;5095275;28;20063;-69
2023/01/26 12:09:20;;;;;;;33.58;6.50;;;8.30;99.90;;;;;;5088163;28;20047;-70
2023/01/26 12:11:58;;;;;;;18.20;5.32;;;8.40;99.90;;;;;;5088424;28;20122;-70
2023/01/26 12:14:23;;;;;;;38.38;6.82;;;8.40;99.90;;;;;;5087075;28;20047;-70
2023/01/26 12:16:55;;;;;;;36.03;6.30;;;8.40;99.90;;;;;;5098552;28;20403;-69
2023/01/26 12:20:03;;;;;;;26.80;6.57;;;8.40;99.90;;;;;;5103317;28;20066;-69
2023/01/26 12:22:35;;;;;;;23.05;6.45;;;8.30;99.90;;;;;;5096947;28;20040;-70
2023/01/26 12:25:23;;;;;;;24.92;6.80;;;8.10;99.90;;;;;;5095584;28;20111;-69
2023/01/26 12:28:00;;;;;;;19.73;6.07;;;8.10;99.90;;;;;;5102924;28;20122;-69
2023/01/26 12:30:35;;;;;;;28.83;5.95;;;8.00;99.90;;;;;;5098017;28;20071;-69
2023/01/26 12:33:02;;;;;;;22.42;4.93;;;8.00;99.90;;;;;;5098159;28;20451;-68
2023/01/26 12:35:45;;;;;;;16.20;5.43;;;7.90;99.90;;;;;;5097014;28;20063;-69
2023/01/26 12:38:27;;;;;;;16.42;4.07;;;7.90;99.90;;;;;;5101423;28;20153;-69
2023/01/26 12:41:10;;;;;;;24.70;4.45;;;7.80;99.90;;;;;;5087271;28;20108;-69
2023/01/26 12:44:07;;;;;;;14.10;4.65;;;7.70;99.90;;;;;;5087108;28;20078;-69
2023/01/26 12:46:38;;;;;;;16.77;5.45;;;7.70;99.90;;;;;;5092335;28;20123;-68
2023/01/26 12:49:17;;;;;;;16.65;6.35;;;7.60;99.90;;;;;;5095874;28;20813;-68
2023/01/26 12:51:49;;;;;;;26.05;10.95;;;7.60;99.90;;;;;;5100045;28;20488;-69
2023/01/26 12:54:37;;;;;;;19.17;9.18;;;7.60;99.90;;;;;;5099950;28;20088;-69
2023/01/26 12:57:08;;;;;;;19.05;5.72;;;7.70;99.90;;;;;;5107333;28;20036;-69
2023/01/26 12:59:37;;;;;;;20.70;6.07;;;7.70;99.90;;;;;;5105298;28;20049;-69
2023/01/26 13:02:13;;;;;;;21.42;6.05;;;7.70;99.90;;;;;;5106529;28;20043;-70
2023/01/26 13:04:40;;;;;;;23.27;6.07;;;7.70;99.90;;;;;;5095956;28;20052;-69
2023/01/26 13:07:26;;;;;;;20.77;4.18;;;7.70;99.90;;;;;;5100232;28;20063;-68
2023/01/26 13:10:19;;;;;;;19.25;5.38;;;7.70;99.90;;;;;;5092983;28;20048;-68
2023/01/26 13:12:53;;;;;;;21.90;3.40;;;7.70;99.90;;;;;;5100066;28;20055;-69
2023/01/26 13:15:22;;;;;;;22.35;5.07;;;7.70;99.90;;;;;;5096496;28;20044;-68
2023/01/26 13:17:52;;;;;;;22.40;4.68;;;7.70;99.90;;;;;;5101058;28;20036;-68
2023/01/26 13:20:24;;;;;;;23.17;4.28;;;7.80;99.90;;;;;;5099637;28;20078;-68
2023/01/26 13:22:53;;;;;;;16.50;3.95;;;7.80;99.90;;;;;;5107394;28;20039;-68
2023/01/26 13:25:24;;;;;;;14.35;4.63;;;7.80;99.90;;;;;;5103515;28;20048;-69
2023/01/26 13:28:08;;;;;;;18.45;4.70;;;7.80;99.90;;;;;;5092009;28;20036;-69
2023/01/26 13:30:42;;;;;;;22.67;7.20;;;7.90;99.90;;;;;;5101220;28;20101;-69
2023/01/26 13:33:11;;;;;;;19.80;6.82;;;7.90;99.90;;;;;;5103802;28;20059;-69
2023/01/26 13:35:37;;;;;;;25.05;6.97;;;7.90;99.90;;;;;;5104955;28;20389;-69
2023/01/26 13:38:10;;;;;;;14.80;5.18;;;7.90;99.90;;;;;;5104773;28;20039;-69
2023/01/26 13:40:41;;;;;;;21.60;4.97;;;7.90;99.90;;;;;;5101930;28;20039;-69